Flight Track Log - Related Links

Times and Time Zones

All times are in EDT time to prevent confusion due to time zone crossing. See the N657QS flight status page for this flight to view local times or setup timezone preferences in your user account.

Time Position Orientation Groundspeed Altitude Reporting Facility
EDT Latitude Longitude Course Direction KTS MPH feet Rate Location/Type
Sat 09:22:08 AM 27.4000 -82.5500 138° Southeast 142 163 400  Level Tampa TRACON
Sat 09:22:50 AM 27.3667 -82.5167 259° West 190 219 2,700 3,032 Climbing Tampa TRACON
Sat 09:25:14 AM 27.3564 -82.5756 347° North 93 107 9,800 2,912 Climbing Miami Center
Sat 09:26:14 AM 27.4350 -82.5958 349° North 170 196 12,600 2,650 Climbing Miami Center
Sat 09:27:14 AM 27.5178 -82.6142 349° North 241 277 15,100 2,509 Climbing Miami Center
Sat 09:28:59 AM 27.6822 -82.6511 351° North 315 362 19,500 2,159 Climbing Jacksonville Center
Sat 09:29:58 AM 27.7825 -82.6697 351° North 340 391 21,000 1,815 Climbing Jacksonville Center
Sat 09:30:58 AM 27.8847 -82.6883 353° North 362 417 23,100 2,050 Climbing Jacksonville Center
Sat 09:31:58 AM 27.9911 -82.7022 352° North 374 430 25,100 1,950 Climbing Jacksonville Center
Sat 09:32:58 AM 28.0956 -82.7183 352° North 374 430 27,000 1,700 Climbing Jacksonville Center
Sat 09:33:58 AM 28.2042 -82.7347 351° North 379 436 28,500 1,450 Climbing Jacksonville Center
Sat 09:34:58 AM 28.3125 -82.7536 351° North 386 444 29,900 1,339 Climbing Jacksonville Center
Sat 09:35:59 AM 28.4253 -82.7744 351° North 392 451 31,200 1,050 Climbing Jacksonville Center
Sat 09:36:58 AM 28.5381 -82.7956 349° North 397 457 32,000 1,059 Climbing Jacksonville Center
Sat 09:37:58 AM 28.6550 -82.8217 344° North 411 473 33,300 1,650 Climbing Jacksonville Center
Sat 09:38:58 AM 28.7592 -82.8547 346° North 404 465 35,300 1,600 Climbing Jacksonville Center
Sat 09:39:58 AM 28.8658 -82.8856 344° North 393 452 36,500 1,100 Climbing Jacksonville Center
Sat 09:40:58 AM 28.9764 -82.9211 346° North 399 459 37,500 1,100 Climbing Jacksonville Center
Sat 09:41:58 AM 29.0892 -82.9544 344° North 404 465 38,700 1,150 Climbing Jacksonville Center
Sat 09:42:58 AM 29.1975 -82.9900 345° North 409 471 39,800 650 Climbing Jacksonville Center
Sat 09:43:58 AM 29.3167 -83.0258 344° North 421 484 40,000 100 Climbing Jacksonville Center
Sat 09:44:58 AM 29.4356 -83.0642 344° North 434 499 40,000  Level Jacksonville Center
Sat 09:45:58 AM 29.5564 -83.1028 345° North 439 505 40,000  Level Jacksonville Center
Sat 09:46:58 AM 29.6733 -83.1389 344° North 439 505 40,000 50 Level Jacksonville Center
Sat 09:47:58 AM 29.7922 -83.1775 346° North 440 506 40,100 350 Climbing Jacksonville Center
Sat 09:48:58 AM 29.9133 -83.2136 344° North 440 506 40,700 700 Climbing Jacksonville Center
Sat 09:49:58 AM 30.0217 -83.2500 345° North 440 506 41,500 850 Climbing Jacksonville Center
Sat 09:50:58 AM 30.1406 -83.2864 345° North 440 506 42,400 750 Climbing Jacksonville Center
Sat 09:51:58 AM 30.2553 -83.3231 344° North 435 501 43,000 300 Climbing Jacksonville Center
Sat 09:52:58 AM 30.3681 -83.3597 345° North 430 495 43,000  Level Jacksonville Center
Sat 09:53:58 AM 30.4806 -83.3939 344° North 419 482 43,000  Level Jacksonville Center
Sat 09:54:58 AM 30.5931 -83.4308 344° North 419 482 43,000  Level Jacksonville Center
Sat 09:55:58 AM 30.7058 -83.4675 344° North 419 482 43,000  Level Jacksonville Center
Sat 09:56:58 AM 30.8206 -83.5047 345° North 419 482 43,000  Level Jacksonville Center
Sat 09:57:58 AM 30.9308 -83.5392 345° North 414 476 43,000  Level Jacksonville Center
Sat 09:58:58 AM 31.0436 -83.5739 344° North 414 476 43,000  Level Jacksonville Center
Sat 09:59:58 AM 31.1539 -83.6111 344° North 414 476 43,000  Level Jacksonville Center
Sat 10:01:39 AM 31.3433 -83.6742 344° North 423 487 43,000  Level Atlanta Center
Sat 10:02:39 AM 31.4603 -83.7128 343° North 423 487 43,000  Level Atlanta Center
Sat 10:03:39 AM 31.5878 -83.7586 344° North 423 487 43,000  Level Atlanta Center
Sat 10:04:39 AM 31.6983 -83.7947 346° North 430 495 43,000  Level Atlanta Center
Sat 10:05:39 AM 31.8300 -83.8336 344° North 438 504 43,000  Level Atlanta Center
Sat 10:06:39 AM 31.9489 -83.8725 344° North 445 512 43,000  Level Atlanta Center
Sat 10:07:39 AM 32.0658 -83.9114 345° North 439 505 43,000  Level Atlanta Center
Sat 10:08:39 AM 32.1808 -83.9481 344° North 434 499 43,000  Level Atlanta Center
Sat 10:09:39 AM 32.3019 -83.9897 344° North 434 499 43,000  Level Atlanta Center
Sat 10:10:39 AM 32.4167 -84.0289 345° North 434 499 43,000  Level Atlanta Center
Sat 10:11:39 AM 32.5294 -84.0658 344° North 434 499 43,000  Level Atlanta Center
Sat 10:12:39 AM 32.6461 -84.1056 345° North 434 499 43,000  Level Atlanta Center
Sat 10:13:39 AM 32.7611 -84.1425 345° North 434 499 43,000  Level Atlanta Center
Sat 10:14:39 AM 32.8778 -84.1797 343° North 434 499 43,000  Level Atlanta Center
Sat 10:15:39 AM 32.9925 -84.2219 344° North 429 494 43,000  Level Atlanta Center
Sat 10:16:39 AM 33.1053 -84.2594 344° North 429 494 43,000  Level Atlanta Center
Sat 10:17:39 AM 33.2242 -84.2994 343° North 429 494 43,000  Level Atlanta Center
Sat 10:18:39 AM 33.3347 -84.3397 345° North 429 494 43,000  Level Atlanta Center
Sat 10:19:39 AM 33.4494 -84.3775 345° North 424 488 43,000  Level Atlanta Center
Sat 10:20:39 AM 33.5661 -84.4153 345° North 424 488 43,000  Level Atlanta Center
Sat 10:21:39 AM 33.6683 -84.4481 349° North 430 495 43,000  Level Atlanta Center
Sat 10:22:39 AM 33.7872 -84.4761 348° North 424 488 43,000  Level Atlanta Center
Sat 10:23:39 AM 33.8978 -84.5042 347° North 419 482 43,000  Level Atlanta Center
Sat 10:24:39 AM 34.0208 -84.5375 350° North 413 475 43,000  Level Atlanta Center
Sat 10:25:39 AM 34.1397 -84.5633 349° North 413 475 43,000  Level Atlanta Center
Sat 10:26:39 AM 34.2500 -84.5892 348° North 413 475 43,000  Level Atlanta Center
Sat 10:27:39 AM 34.3628 -84.6175 348° North 413 475 43,000  Level Atlanta Center
Sat 10:28:39 AM 34.4753 -84.6461 348° North 408 470 43,000  Level Atlanta Center
Sat 10:29:39 AM 34.5836 -84.6744 348° North 408 470 43,000  Level Atlanta Center
Sat 10:30:39 AM 34.6919 -84.7033 348° North 407 468 43,000  Level Atlanta Center
Sat 10:31:39 AM 34.8067 -84.7319 349° North 407 468 43,000  Level Atlanta Center
Sat 10:32:39 AM 34.9233 -84.7608 348° North 418 481 43,000  Level Atlanta Center
Sat 10:33:39 AM 35.0378 -84.7897 348° North 418 481 43,000  Level Atlanta Center
Sat 10:34:39 AM 35.1419 -84.8161 348° North 418 481 43,000  Level Atlanta Center
Sat 10:35:39 AM 35.2567 -84.8450 348° North 418 481 43,000  Level Atlanta Center
Sat 10:36:39 AM 35.3692 -84.8742 348° North 413 475 43,000  Level Atlanta Center
Sat 10:37:39 AM 35.4836 -84.9033 348° North 413 475 43,000  Level Atlanta Center
Sat 10:38:39 AM 35.5961 -84.9328 348° North 413 475 43,000  Level Atlanta Center
Sat 10:39:39 AM 35.7064 -84.9619 349° North 408 470 43,000  Level Atlanta Center
Sat 10:40:39 AM 35.8294 -84.9917 348° North 408 470 43,000  Level Atlanta Center
Sat 10:42:08 AM 35.9936 -85.0353 348° North 410 472 43,000  Level Indianapolis Center
Sat 10:43:08 AM 36.1036 -85.0631 354° North 415 478 43,000  Level Indianapolis Center
Sat 10:44:08 AM 36.2183 -85.0783 348° North 410 472 43,000  Level Indianapolis Center
Sat 10:45:08 AM 36.3325 -85.1089 349° North 410 472 43,000  Level Indianapolis Center
Sat 10:46:08 AM 36.4447 -85.1369 348° North 410 472 43,000  Level Indianapolis Center
Sat 10:47:08 AM 36.5592 -85.1678 348° North 415 478 43,000  Level Indianapolis Center
Sat 10:48:08 AM 36.6733 -85.1986 349° North 415 478 43,000  Level Indianapolis Center
Sat 10:49:08 AM 36.7900 -85.2272 350° North 415 478 43,000 -50 Level Indianapolis Center
Sat 10:50:08 AM 36.9042 -85.2531 North 415 478 42,900 -450 Descending Indianapolis Center
Sat 10:51:08 AM 37.0192 -85.2322 12° North 408 470 42,100 -1,050 Descending Indianapolis Center
Sat 10:52:08 AM 37.1386 -85.2008 12° North 416 479 40,800 -1,250 Descending Indianapolis Center
Sat 10:53:08 AM 37.2600 -85.1697 12° North 433 498 39,600 -900 Descending Indianapolis Center
Sat 10:54:08 AM 37.3794 -85.1383 12° North 433 498 39,000 -600 Descending Indianapolis Center
Sat 10:55:08 AM 37.4986 -85.1067 11° North 433 498 38,400 -800 Descending Indianapolis Center
Sat 10:56:08 AM 37.6222 -85.0753 11° North 440 506 37,400 -1,000 Descending Indianapolis Center
Sat 10:57:08 AM 37.7519 -85.0439 11° North 460 529 36,400 -1,000 Descending Indianapolis Center
Sat 10:58:08 AM 37.8775 -85.0122 12° North 465 535 35,400 -706 Descending Indianapolis Center
Sat 10:59:07 AM 38.0031 -84.9778 13° North 460 529 35,000 -200 Descending Indianapolis Center
Sat 11:00:08 AM 38.1328 -84.9406 11° North 470 541 35,000  Level Indianapolis Center
Sat 11:01:08 AM 38.2603 -84.9086 11° North 470 541 35,000 -550 Level Indianapolis Center
Sat 11:02:08 AM 38.3964 -84.8739 12° North 456 525 33,900 -1,600 Descending Indianapolis Center
Sat 11:03:08 AM 38.5239 -84.8392 13° North 456 525 31,800 -2,250 Descending Indianapolis Center
Sat 11:04:08 AM 38.6600 -84.7989 12° North 475 547 29,400 -2,250 Descending Indianapolis Center
Sat 11:05:08 AM 38.7897 -84.7639 12° North 487 560 27,300 -1,950 Descending Indianapolis Center
Sat 11:06:08 AM 38.9108 -84.7314 23° Northeast 487 560 25,500 -1,650 Descending Indianapolis Center
Sat 11:07:08 AM 39.0306 -84.6664 52° Northeast 478 550 24,000 -1,100 Descending Indianapolis Center
Sat 11:08:08 AM 39.1025 -84.5472 55° Northeast 424 488 23,300 -1,100 Descending Indianapolis Center
Sat 11:09:08 AM 39.1722 -84.4194 54° Northeast 430 495 21,800 -1,500 Descending Indianapolis Center
Sat 11:10:08 AM 39.2439 -84.2917 58° Northeast 430 495 20,300 -1,500 Descending Indianapolis Center
Sat 11:11:08 AM 39.3114 -84.1528 62° Northeast 425 489 18,800 -1,500 Descending Indianapolis Center
Sat 11:12:08 AM 39.3642 -84.0217 65° Northeast 414 476 17,300 -1,500 Descending Indianapolis Center
Sat 11:13:08 AM 39.4106 -83.8931 63° Northeast 399 459 15,800 -1,650 Descending Indianapolis Center
Sat 11:14:08 AM 39.4586 -83.7694 64° Northeast 394 453 14,000 -1,800 Descending Indianapolis Center
Sat 11:14:48 AM 39.4881 -83.6914 62° Northeast 376 433 12,800 -1,829 Descending Indianapolis Center
Sat 11:15:30 AM 39.5236 -83.6056 68° East 367 422 11,500 -1,350 Descending Indianapolis Center
Sat 11:16:08 AM 39.5464 -83.5328 56° Northeast 360 414 11,000 -1,224 Descending Indianapolis Center
Sat 11:17:08 AM 39.5944 -83.4411 14° North 340 391 9,500 -1,700 Descending Indianapolis Center
Sat 11:18:08 AM 39.6714 -83.4167 North 277 319 7,600 -1,900 Descending Indianapolis Center
Sat 11:19:08 AM 39.7508 -83.4031 North 272 313 5,700 -1,800 Descending Indianapolis Center
Sat 11:20:08 AM 39.8258 -83.3975 North 278 320 4,000 -900 Descending Indianapolis Center
Sat 11:21:08 AM 39.8925 -83.3947 North 259 298 3,900 -500 Descending Indianapolis Center
Sat 11:22:08 AM 39.9508 -83.3917 North 227 261 3,000 -450 Descending Indianapolis Center
Sat 11:23:08 AM 40.0028 -83.3836 25° Northeast 196 226 3,000  Level Indianapolis Center
Sat 11:24:08 AM 40.0467 -83.3564 71° East 190 219 3,000  Level Indianapolis Center
Sat 11:25:38 AM 40.0714 -83.2642 90° East 202 232 3,000  Level Indianapolis Center
Sat 11:26:08 AM 40.0714 -83.2261 85° East 177 204 3,000 -295 Level Indianapolis Center
Sat 11:26:39 AM 40.0733 -83.1989 90° East 160 184 2,700 -652 Descending Indianapolis Center
Sat 11:27:40 AM 40.0733 -83.1556 86° East 121 139 2,000 -689 Descending Indianapolis Center
Sat 11:28:41 AM 40.0753 -83.1147 86° East 122 140 1,300 -689 Descending Indianapolis Center

Login

Don't have an account? Register now (free) for customized features, flight alerts, and more!